createdAt,value
2017-10-31T00:05:45.000Z,16.2
2017-10-31T00:15:45.000Z,16.2
2017-10-31T00:25:45.000Z,16.2
2017-10-31T00:35:45.000Z,16.2
2017-10-31T00:45:45.000Z,16.2
2017-10-31T00:55:45.000Z,16.1
2017-10-31T01:05:45.000Z,16.1
2017-10-31T01:15:45.000Z,16
2017-10-31T01:25:45.000Z,16.1
2017-10-31T01:35:45.000Z,16.1
2017-10-31T01:45:45.000Z,15.9
2017-10-31T01:55:45.000Z,15.9
2017-10-31T02:05:45.000Z,16
2017-10-31T02:15:45.000Z,16
2017-10-31T02:25:45.000Z,16
2017-10-31T02:35:45.000Z,15.9
2017-10-31T02:45:45.000Z,15.9
2017-10-31T02:55:45.000Z,15.8
2017-10-31T03:05:45.000Z,15.8
2017-10-31T03:15:45.000Z,15.8
2017-10-31T03:25:45.000Z,15.8
2017-10-31T03:35:45.000Z,15.8
2017-10-31T03:45:45.000Z,15.7
2017-10-31T03:55:45.000Z,15.8
2017-10-31T04:05:45.000Z,15.7
2017-10-31T04:15:45.000Z,15.7
2017-10-31T04:25:46.000Z,15.6
2017-10-31T04:35:46.000Z,15.7
2017-10-31T04:45:46.000Z,15.6
2017-10-31T04:55:46.000Z,15.6
2017-10-31T05:05:46.000Z,15.7
2017-10-31T05:15:46.000Z,15.5
2017-10-31T05:25:46.000Z,15.4
2017-10-31T05:35:48.000Z,15.5
2017-10-31T05:45:47.000Z,15.4
2017-10-31T05:55:46.000Z,15.4
2017-10-31T06:05:46.000Z,15.4
2017-10-31T06:15:46.000Z,15.4
2017-10-31T06:25:46.000Z,15.3
2017-10-31T06:35:46.000Z,15.3
2017-10-31T06:45:46.000Z,15.3
2017-10-31T06:55:46.000Z,15.3
2017-10-31T07:05:46.000Z,15.3
2017-10-31T07:15:46.000Z,15.2
2017-10-31T07:25:46.000Z,15.3
2017-10-31T07:35:46.000Z,15.4
2017-10-31T07:45:48.000Z,15.4
2017-10-31T07:55:46.000Z,15.5
2017-10-31T08:05:46.000Z,15.6
2017-10-31T08:15:46.000Z,15.5
2017-10-31T08:25:46.000Z,15.6
2017-10-31T08:35:46.000Z,16.3
2017-10-31T08:45:46.000Z,16.9
2017-10-31T08:55:46.000Z,17.3
2017-10-31T09:05:46.000Z,17.5
2017-10-31T09:15:46.000Z,17.5
2017-10-31T09:25:46.000Z,17.7
2017-10-31T09:35:46.000Z,17.8
2017-10-31T09:45:46.000Z,17.9
2017-10-31T09:55:46.000Z,17.9
2017-10-31T10:05:46.000Z,18
2017-10-31T10:15:46.000Z,17.9
2017-10-31T10:25:46.000Z,18.1
2017-10-31T10:35:46.000Z,17.9
2017-10-31T10:45:46.000Z,18.1
2017-10-31T10:55:46.000Z,18.1
2017-10-31T11:05:46.000Z,18.2
2017-10-31T11:15:46.000Z,18.3
2017-10-31T11:25:46.000Z,18.6
2017-10-31T11:35:46.000Z,18.8
2017-10-31T11:45:47.000Z,18.6
2017-10-31T11:55:47.000Z,18.4
2017-10-31T12:05:47.000Z,18.3
2017-10-31T12:15:47.000Z,18.3
2017-10-31T12:25:47.000Z,18.3
2017-10-31T12:35:47.000Z,18.4
2017-10-31T12:45:47.000Z,18.4
2017-10-31T12:55:47.000Z,18.4
2017-10-31T13:05:47.000Z,18.2
2017-10-31T13:15:47.000Z,18.4
2017-10-31T13:25:47.000Z,18.3
2017-10-31T13:35:47.000Z,18.4
2017-10-31T13:45:47.000Z,18.4
2017-10-31T13:55:47.000Z,18.5
2017-10-31T14:05:47.000Z,18.4
2017-10-31T14:15:47.000Z,18.4
2017-10-31T14:25:47.000Z,18.5
2017-10-31T14:35:47.000Z,18.6
2017-10-31T14:45:47.000Z,18.7
2017-10-31T14:55:47.000Z,18.6
2017-10-31T15:05:47.000Z,18.6
2017-10-31T15:15:47.000Z,18.6
2017-10-31T15:25:47.000Z,18.6
2017-10-31T15:35:47.000Z,18.6
2017-10-31T15:45:47.000Z,18.6
2017-10-31T15:55:47.000Z,18.6
2017-10-31T16:05:47.000Z,18.7
2017-10-31T16:15:47.000Z,18.7
2017-10-31T16:25:47.000Z,18.7
2017-10-31T16:35:47.000Z,18.8
2017-10-31T16:45:47.000Z,18.7
2017-10-31T16:55:47.000Z,18.7
2017-10-31T17:05:47.000Z,18.7
2017-10-31T17:15:47.000Z,18.7
2017-10-31T17:25:47.000Z,18.6
2017-10-31T17:35:47.000Z,18.8
2017-10-31T17:45:47.000Z,18.9
2017-10-31T17:55:47.000Z,19
2017-10-31T18:05:47.000Z,18.9
2017-10-31T18:15:47.000Z,18.9
2017-10-31T18:25:50.000Z,18.9
2017-10-31T18:35:48.000Z,18.8
2017-10-31T18:45:48.000Z,18.8
2017-10-31T18:55:48.000Z,18.8
2017-10-31T19:05:48.000Z,18.8
2017-10-31T19:15:48.000Z,18.8
2017-10-31T19:25:48.000Z,18.8
2017-10-31T19:35:48.000Z,18.9
2017-10-31T19:45:48.000Z,18.9
2017-10-31T19:55:48.000Z,19
2017-10-31T20:05:48.000Z,19
2017-10-31T20:15:52.000Z,19
2017-10-31T20:25:48.000Z,18.9
2017-10-31T20:35:49.000Z,19
2017-10-31T20:45:48.000Z,19
2017-10-31T20:55:48.000Z,19
2017-10-31T21:05:48.000Z,19
2017-10-31T21:15:51.000Z,19
2017-10-31T21:25:48.000Z,19
2017-10-31T21:35:48.000Z,19
2017-10-31T21:45:48.000Z,19.1
2017-10-31T21:55:48.000Z,19.1
2017-10-31T22:05:48.000Z,19.2
2017-10-31T22:15:48.000Z,19.2
2017-10-31T22:25:48.000Z,19.1
2017-10-31T22:35:48.000Z,19.1
2017-10-31T22:45:48.000Z,19.1
2017-10-31T22:55:48.000Z,19.1
2017-10-31T23:05:48.000Z,19.1
2017-10-31T23:15:48.000Z,19.1
2017-10-31T23:25:48.000Z,19
2017-10-31T23:35:48.000Z,19
2017-10-31T23:45:48.000Z,19
2017-10-31T23:55:48.000Z,19
